createdAt,value
2018-12-30T00:02:35.407Z,4.33
2018-12-30T00:05:18.684Z,3.90
2018-12-30T00:08:01.628Z,4.67
2018-12-30T00:10:44.709Z,4.13
2018-12-30T00:13:27.414Z,4.43
2018-12-30T00:16:10.216Z,4.33
2018-12-30T00:18:53.515Z,3.80
2018-12-30T00:21:35.861Z,4.20
2018-12-30T00:24:18.225Z,4.57
2018-12-30T00:27:01.554Z,4.10
2018-12-30T00:29:44.427Z,4.57
2018-12-30T00:32:27.583Z,4.40
2018-12-30T00:34:58.092Z,5.10
2018-12-30T00:37:48.162Z,5.53
2018-12-30T00:40:38.072Z,5.93
2018-12-30T00:43:20.531Z,6.47
2018-12-30T00:46:03.365Z,5.70
2018-12-30T00:48:46.494Z,6.80
2018-12-30T00:51:28.916Z,5.97
2018-12-30T00:54:11.767Z,6.20
2018-12-30T00:56:54.945Z,7.10
2018-12-30T00:59:37.752Z,6.27
2018-12-30T01:02:20.747Z,6.87
2018-12-30T01:05:03.413Z,6.60
2018-12-30T01:07:46.031Z,6.83
2018-12-30T01:10:28.415Z,7.17
2018-12-30T01:13:10.783Z,7.57
2018-12-30T01:15:54.341Z,7.20
2018-12-30T01:18:36.775Z,7.50
2018-12-30T01:21:24.967Z,7.37
2018-12-30T01:24:04.139Z,7.57
2018-12-30T01:26:47.782Z,7.23
2018-12-30T01:29:19.694Z,7.60
2018-12-30T01:32:09.711Z,8.23
2018-12-30T01:34:59.653Z,7.50
2018-12-30T01:37:30.162Z,8.03
2018-12-30T01:40:20.115Z,7.93
2018-12-30T01:43:09.975Z,7.70
2018-12-30T01:45:52.423Z,7.97
2018-12-30T01:48:35.116Z,8.67
2018-12-30T01:51:19.466Z,7.60
2018-12-30T01:53:50.039Z,8.60
2018-12-30T01:56:20.541Z,8.03
2018-12-30T01:59:03.180Z,7.83
2018-12-30T02:01:46.216Z,7.80
2018-12-30T02:04:28.791Z,7.87
2018-12-30T02:07:11.119Z,7.67
2018-12-30T02:09:53.913Z,7.40
2018-12-30T02:12:24.858Z,8.27
2018-12-30T02:15:14.727Z,7.10
2018-12-30T02:17:57.285Z,6.93
2018-12-30T02:20:40.473Z,6.67
2018-12-30T02:23:23.720Z,7.17
2018-12-30T02:26:07.254Z,7.47
2018-12-30T02:28:49.738Z,6.80
2018-12-30T02:31:32.946Z,7.17
2018-12-30T02:34:17.470Z,6.87
2018-12-30T02:37:00.345Z,6.77
2018-12-30T02:39:43.002Z,6.83
2018-12-30T02:42:25.450Z,7.43
2018-12-30T02:45:08.586Z,7.00
2018-12-30T02:47:51.658Z,7.50
2018-12-30T02:50:33.906Z,8.20
2018-12-30T02:53:16.532Z,7.73
2018-12-30T02:55:59.068Z,7.33
2018-12-30T02:58:41.776Z,7.40
2018-12-30T03:01:24.564Z,7.43
2018-12-30T03:04:07.076Z,7.40
2018-12-30T03:06:49.555Z,7.23
2018-12-30T03:09:32.869Z,7.90
2018-12-30T03:12:16.040Z,7.80
2018-12-30T03:14:58.497Z,8.03
2018-12-30T03:17:42.159Z,7.10
2018-12-30T03:20:24.712Z,7.77
2018-12-30T03:23:07.330Z,7.33
2018-12-30T03:25:49.894Z,6.70
2018-12-30T03:28:32.738Z,7.73
2018-12-30T03:31:15.795Z,7.03
2018-12-30T03:33:58.222Z,7.60
2018-12-30T03:36:41.512Z,9.27
2018-12-30T03:39:23.933Z,8.53
2018-12-30T03:42:07.090Z,10.10
2018-12-30T03:44:49.547Z,7.83
2018-12-30T03:47:31.954Z,7.00
2018-12-30T03:50:14.700Z,7.57
2018-12-30T03:52:57.835Z,8.20
2018-12-30T03:55:40.412Z,7.30
2018-12-30T03:58:23.573Z,6.90
2018-12-30T04:01:06.560Z,6.67
2018-12-30T04:03:48.963Z,6.80
2018-12-30T04:06:32.089Z,7.43
2018-12-30T04:09:15.247Z,6.30
2018-12-30T04:11:58.369Z,7.57
2018-12-30T04:14:41.148Z,6.83
2018-12-30T04:17:24.235Z,6.87
2018-12-30T04:20:06.507Z,7.13
2018-12-30T04:22:48.982Z,6.90
2018-12-30T04:25:31.755Z,7.00
2018-12-30T04:28:14.151Z,6.73
2018-12-30T04:30:57.126Z,6.83
2018-12-30T04:33:39.482Z,6.37
2018-12-30T04:36:22.442Z,6.80
2018-12-30T04:39:04.959Z,6.73
2018-12-30T04:41:48.433Z,7.27
2018-12-30T04:47:13.242Z,7.23
2018-12-30T04:49:55.875Z,7.50
2018-12-30T04:52:26.688Z,7.03
2018-12-30T04:55:16.669Z,7.50
2018-12-30T04:58:06.627Z,6.90
2018-12-30T05:00:49.171Z,5.73
2018-12-30T05:06:14.504Z,6.00
2018-12-30T05:08:57.644Z,6.17
2018-12-30T05:14:23.200Z,7.70
2018-12-30T05:17:05.741Z,6.33
2018-12-30T05:19:48.085Z,7.57
2018-12-30T05:22:34.016Z,6.30
2018-12-30T05:25:14.607Z,6.30
2018-12-30T05:27:57.891Z,6.87
2018-12-30T05:30:40.246Z,5.50
2018-12-30T05:33:22.971Z,5.13
2018-12-30T05:35:53.534Z,5.80
2018-12-30T05:38:43.477Z,5.40
2018-12-30T05:41:26.464Z,6.03
2018-12-30T05:44:09.384Z,5.97
2018-12-30T05:46:52.545Z,6.30
2018-12-30T05:49:34.979Z,5.63
2018-12-30T05:52:17.814Z,5.60
2018-12-30T05:55:00.702Z,5.47
2018-12-30T05:57:43.873Z,5.77
2018-12-30T06:00:26.884Z,5.50
2018-12-30T06:03:09.447Z,6.30
2018-12-30T06:12:18.719Z,4.63
2018-12-30T06:15:01.909Z,5.17
2018-12-30T06:17:44.796Z,4.90
2018-12-30T06:20:28.377Z,5.20
2018-12-30T06:23:11.844Z,5.13
2018-12-30T06:28:36.668Z,5.13
2018-12-30T06:31:19.187Z,4.73
2018-12-30T06:33:49.977Z,5.70
2018-12-30T06:36:39.879Z,4.93
2018-12-30T06:39:29.799Z,4.63
2018-12-30T06:42:12.284Z,5.20
2018-12-30T06:44:42.852Z,4.90
2018-12-30T06:47:32.771Z,5.53
2018-12-30T06:53:58.182Z,4.97
2018-12-30T06:56:41.188Z,5.97
2018-12-30T06:59:24.312Z,4.87
2018-12-30T07:02:07.292Z,5.17
2018-12-30T07:04:51.346Z,4.53
2018-12-30T07:07:34.128Z,12.23
2018-12-30T07:10:16.454Z,7.53
2018-12-30T07:12:59.235Z,11.07
2018-12-30T07:15:41.536Z,7.10
2018-12-30T07:18:24.520Z,8.10
2018-12-30T07:21:07.061Z,5.87
2018-12-30T07:23:49.778Z,10.00
2018-12-30T07:26:32.786Z,12.47
2018-12-30T07:29:16.199Z,12.30
2018-12-30T07:31:58.750Z,8.63
2018-12-30T07:34:41.477Z,6.90
2018-12-30T07:37:24.849Z,7.43
2018-12-30T07:40:07.408Z,5.93
2018-12-30T07:42:49.816Z,5.40
2018-12-30T07:45:32.534Z,4.80
2018-12-30T07:48:15.082Z,5.37
2018-12-30T07:50:57.722Z,4.43
2018-12-30T07:53:40.916Z,8.90
2018-12-30T07:56:24.115Z,6.43
2018-12-30T07:59:07.076Z,7.13
2018-12-30T08:01:49.954Z,11.97
2018-12-30T08:04:32.398Z,14.57
2018-12-30T08:07:15.094Z,9.80
2018-12-30T08:09:57.897Z,9.00
2018-12-30T08:12:40.236Z,10.33
2018-12-30T08:15:23.287Z,9.80
2018-12-30T08:18:06.384Z,6.50
2018-12-30T08:20:49.163Z,8.00
2018-12-30T08:23:31.652Z,6.30
2018-12-30T08:26:14.687Z,5.70
2018-12-30T08:28:57.915Z,6.10
2018-12-30T08:31:40.367Z,14.23
2018-12-30T08:34:23.233Z,12.03
2018-12-30T08:37:05.582Z,7.50
2018-12-30T08:39:49.229Z,8.37
2018-12-30T08:42:31.876Z,5.30
2018-12-30T08:45:15.874Z,7.27
2018-12-30T08:47:58.810Z,7.93
2018-12-30T08:50:41.813Z,35.93
2018-12-30T08:53:29.344Z,7.00
2018-12-30T08:56:08.600Z,7.63
2018-12-30T08:58:50.903Z,5.27
2018-12-30T09:01:34.044Z,6.20
2018-12-30T09:04:16.817Z,4.70
2018-12-30T09:06:59.245Z,5.40
2018-12-30T09:09:42.748Z,5.90
2018-12-30T09:12:25.473Z,7.77
2018-12-30T09:15:08.274Z,6.70
2018-12-30T09:17:50.679Z,6.77
2018-12-30T09:20:33.118Z,5.13
2018-12-30T09:23:15.609Z,5.87
2018-12-30T09:25:58.496Z,6.30
2018-12-30T09:28:40.797Z,6.27
2018-12-30T09:31:23.805Z,5.03
2018-12-30T09:34:06.293Z,6.63
2018-12-30T09:36:48.941Z,5.10
2018-12-30T09:39:31.551Z,5.70
2018-12-30T09:42:15.138Z,5.80
2018-12-30T09:47:40.386Z,5.07
2018-12-30T09:50:23.968Z,5.57
2018-12-30T09:55:37.304Z,4.77
2018-12-30T09:58:07.859Z,6.10
2018-12-30T10:00:38.387Z,8.57
2018-12-30T10:03:21.680Z,6.40
2018-12-30T10:06:04.273Z,7.53
2018-12-30T10:08:46.750Z,5.13
2018-12-30T10:11:29.717Z,4.80
2018-12-30T10:14:14.791Z,4.47
2018-12-30T10:16:57.402Z,3.93
2018-12-30T10:19:39.923Z,5.80
2018-12-30T10:22:22.509Z,5.20
2018-12-30T10:25:05.364Z,6.60
2018-12-30T10:27:47.962Z,5.20
2018-12-30T10:30:30.456Z,6.13
2018-12-30T10:33:13.296Z,5.97
2018-12-30T10:36:03.422Z,4.97
2018-12-30T10:38:46.428Z,6.57
2018-12-30T10:41:17.030Z,6.23
2018-12-30T10:44:07.188Z,6.60
2018-12-30T10:46:49.703Z,6.33
2018-12-30T10:49:21.170Z,5.37
2018-12-30T10:52:11.099Z,6.00
2018-12-30T10:55:00.956Z,5.20
2018-12-30T10:57:44.519Z,5.33
2018-12-30T11:00:27.480Z,5.50
2018-12-30T11:03:10.014Z,6.07
2018-12-30T11:05:52.701Z,4.77
2018-12-30T11:08:35.197Z,4.90
2018-12-30T11:13:59.871Z,5.93
2018-12-30T11:16:50.086Z,6.47
2018-12-30T11:19:33.381Z,5.87
2018-12-30T11:22:16.260Z,5.80
2018-12-30T11:25:00.159Z,5.63
2018-12-30T11:27:43.393Z,4.63
2018-12-30T11:30:26.136Z,5.07
2018-12-30T11:33:09.004Z,4.60
2018-12-30T11:35:51.740Z,5.20
2018-12-30T11:38:34.229Z,4.73
2018-12-30T11:41:16.956Z,4.50
2018-12-30T11:43:59.852Z,5.93
2018-12-30T11:46:30.493Z,9.20
2018-12-30T11:49:34.537Z,5.73
2018-12-30T11:52:43.191Z,7.03
2018-12-30T11:55:27.407Z,6.17
2018-12-30T11:58:10.289Z,5.17
2018-12-30T12:00:52.802Z,5.60
2018-12-30T12:03:35.826Z,5.43
2018-12-30T12:06:19.320Z,4.87
2018-12-30T12:08:50.156Z,4.93
2018-12-30T12:11:40.002Z,6.07
2018-12-30T12:14:23.278Z,7.20
2018-12-30T12:17:06.254Z,7.10
2018-12-30T12:19:48.559Z,5.67
2018-12-30T12:22:31.101Z,5.93
2018-12-30T12:25:14.247Z,7.47
2018-12-30T12:27:57.887Z,5.00
2018-12-30T12:30:40.731Z,5.57
2018-12-30T12:33:23.212Z,4.80
2018-12-30T12:36:06.994Z,5.10
2018-12-30T12:38:49.784Z,5.40
2018-12-30T12:41:32.624Z,5.17
2018-12-30T12:44:15.038Z,5.27
2018-12-30T12:46:57.861Z,5.27
2018-12-30T12:49:40.301Z,6.00
2018-12-30T12:52:22.901Z,5.63
2018-12-30T12:55:06.282Z,4.73
2018-12-30T12:57:50.241Z,7.03
2018-12-30T13:00:34.938Z,6.27
2018-12-30T13:03:18.148Z,6.87
2018-12-30T13:06:01.408Z,6.60
2018-12-30T13:08:43.894Z,3.80
2018-12-30T13:11:27.192Z,3.50
2018-12-30T13:14:11.356Z,4.23
2018-12-30T13:16:54.759Z,4.60
2018-12-30T13:19:37.829Z,4.13
2018-12-30T13:22:08.367Z,4.80
2018-12-30T13:24:58.286Z,4.87
2018-12-30T13:27:40.887Z,4.70
2018-12-30T13:30:23.196Z,4.77
2018-12-30T13:33:05.803Z,4.57
2018-12-30T13:35:49.416Z,18.67
2018-12-30T13:38:33.023Z,8.33
2018-12-30T13:41:15.589Z,5.03
2018-12-30T13:43:58.086Z,5.50
2018-12-30T13:46:40.549Z,7.40
2018-12-30T13:49:23.120Z,5.40
2018-12-30T13:52:05.856Z,6.30
2018-12-30T13:54:48.603Z,4.47
2018-12-30T13:57:31.660Z,4.47
2018-12-30T14:00:14.317Z,4.07
2018-12-30T14:02:56.925Z,3.97
2018-12-30T14:05:39.492Z,4.40
2018-12-30T14:08:22.210Z,4.13
2018-12-30T14:11:04.663Z,4.03
2018-12-30T14:13:35.385Z,4.13
2018-12-30T14:16:25.433Z,3.80
2018-12-30T14:19:08.521Z,4.20
2018-12-30T14:21:52.114Z,4.57
2018-12-30T14:24:35.273Z,4.33
2018-12-30T14:27:17.807Z,5.07
2018-12-30T14:30:00.669Z,5.80
2018-12-30T14:32:43.243Z,6.57
2018-12-30T14:35:25.696Z,6.77
2018-12-30T14:38:10.035Z,7.90
2018-12-30T14:40:52.504Z,7.30
2018-12-30T14:43:35.223Z,7.07
2018-12-30T14:46:18.384Z,6.53
2018-12-30T14:49:01.038Z,6.20
2018-12-30T14:51:32.172Z,7.33
2018-12-30T14:54:02.775Z,6.60
2018-12-30T14:56:45.105Z,6.90
2018-12-30T14:59:27.846Z,8.80
2018-12-30T15:04:53.149Z,7.50
2018-12-30T15:07:36.034Z,8.77
2018-12-30T15:12:48.675Z,7.67
2018-12-30T15:15:32.640Z,8.13
2018-12-30T15:18:16.299Z,7.50
2018-12-30T15:21:00.422Z,6.20
2018-12-30T15:23:43.788Z,7.47
2018-12-30T15:26:26.527Z,7.80
2018-12-30T15:29:09.805Z,7.23
2018-12-30T15:31:52.810Z,6.93
2018-12-30T15:34:35.307Z,7.53
2018-12-30T15:37:17.744Z,7.07
2018-12-30T15:40:00.619Z,7.67
2018-12-30T15:42:42.928Z,8.17
2018-12-30T15:45:25.169Z,7.80
2018-12-30T15:48:07.857Z,8.57
2018-12-30T15:50:50.129Z,8.40
2018-12-30T15:53:33.322Z,8.30
2018-12-30T15:56:16.743Z,9.00
2018-12-30T15:58:59.272Z,7.67
2018-12-30T16:01:42.067Z,8.20
2018-12-30T16:04:26.295Z,8.00
2018-12-30T16:07:08.764Z,8.37
2018-12-30T16:09:51.875Z,12.15
2018-12-30T16:12:34.450Z,9.90
2018-12-30T16:15:17.597Z,9.17
2018-12-30T16:18:00.653Z,8.87
2018-12-30T16:20:43.447Z,8.43
2018-12-30T16:23:26.688Z,10.03
2018-12-30T16:26:09.029Z,8.27
2018-12-30T16:28:51.802Z,10.17
2018-12-30T16:31:28.012Z,7.80
2018-12-30T16:34:14.745Z,7.20
2018-12-30T16:36:58.295Z,6.97
2018-12-30T16:42:11.646Z,9.07
2018-12-30T16:45:02.554Z,10.50
2018-12-30T16:47:46.380Z,12.60
2018-12-30T16:50:29.726Z,8.50
2018-12-30T16:53:12.739Z,7.50
2018-12-30T16:55:56.156Z,7.13
2018-12-30T16:58:27.103Z,6.53
2018-12-30T17:01:17.051Z,7.70
2018-12-30T17:03:59.502Z,6.40
2018-12-30T17:06:44.523Z,8.57
2018-12-30T17:09:46.354Z,9.93
2018-12-30T17:12:29.051Z,7.50
2018-12-30T17:15:11.445Z,9.73
2018-12-30T17:17:54.058Z,8.37
2018-12-30T17:20:37.178Z,10.17
2018-12-30T17:23:19.802Z,10.67
2018-12-30T17:25:50.370Z,9.40
2018-12-30T17:28:40.409Z,8.03
2018-12-30T17:31:23.102Z,8.10
2018-12-30T17:34:06.661Z,7.57
2018-12-30T17:36:49.085Z,6.57
2018-12-30T17:39:31.594Z,6.60
2018-12-30T17:42:13.994Z,7.03
2018-12-30T17:44:44.521Z,7.40
2018-12-30T17:47:27.590Z,7.93
2018-12-30T17:50:10.776Z,7.63
2018-12-30T17:52:53.780Z,7.60
2018-12-30T17:55:36.262Z,6.90
2018-12-30T17:58:19.391Z,7.07
2018-12-30T18:00:50.017Z,7.00
2018-12-30T18:03:59.525Z,7.03
2018-12-30T18:06:42.742Z,6.97
2018-12-30T18:09:25.053Z,7.70
2018-12-30T18:12:15.008Z,6.43
2018-12-30T18:15:05.935Z,6.23
2018-12-30T18:17:48.515Z,6.57
2018-12-30T18:20:30.904Z,6.60
2018-12-30T18:23:13.361Z,7.27
2018-12-30T18:25:58.690Z,7.63
2018-12-30T18:28:28.260Z,6.80
2018-12-30T18:31:18.286Z,6.77
2018-12-30T18:34:01.525Z,7.03
2018-12-30T18:36:45.502Z,6.37
2018-12-30T18:39:29.746Z,6.67
2018-12-30T18:49:14.289Z,5.77
2018-12-30T18:51:57.673Z,7.47
2018-12-30T18:54:42.196Z,6.77
2018-12-30T19:00:32.495Z,6.57
2018-12-30T19:03:16.085Z,7.37
2018-12-30T19:05:58.707Z,8.13
2018-12-30T19:08:42.168Z,8.93
2018-12-30T19:11:32.223Z,8.13
2018-12-30T19:14:22.373Z,7.60
2018-12-30T19:17:05.738Z,8.50
2018-12-30T19:19:55.240Z,7.63
2018-12-30T19:22:38.212Z,8.27
2018-12-30T19:25:21.726Z,8.30
2018-12-30T19:28:04.542Z,9.27
2018-12-30T19:30:47.207Z,8.43
2018-12-30T19:33:30.577Z,8.60
2018-12-30T19:36:13.131Z,8.20
2018-12-30T19:38:55.980Z,9.27
2018-12-30T19:41:38.605Z,8.20
2018-12-30T19:44:21.106Z,10.67
2018-12-30T19:47:03.880Z,9.77
2018-12-30T19:49:46.321Z,9.23
2018-12-30T19:52:28.770Z,11.10
2018-12-30T19:55:11.321Z,15.30
2018-12-30T19:57:54.495Z,14.10
2018-12-30T20:00:44.505Z,11.57
2018-12-30T20:03:55.288Z,10.83
2018-12-30T20:07:04.456Z,10.20
2018-12-30T20:12:28.946Z,19.40
2018-12-30T20:15:12.191Z,11.80
2018-12-30T20:17:54.935Z,10.57
2018-12-30T20:20:37.403Z,15.60
2018-12-30T20:23:20.143Z,13.37
2018-12-30T20:26:02.911Z,11.93
2018-12-30T20:28:45.632Z,11.37
2018-12-30T20:31:28.306Z,12.70
2018-12-30T20:34:11.035Z,10.07
2018-12-30T20:36:53.561Z,11.30
2018-12-30T20:39:35.918Z,18.73
2018-12-30T20:42:18.618Z,23.37
2018-12-30T20:45:02.418Z,10.53
2018-12-30T20:47:46.560Z,9.73
2018-12-30T20:50:30.169Z,9.63
2018-12-30T20:53:12.724Z,9.87
2018-12-30T20:55:55.712Z,10.53
2018-12-30T20:58:39.087Z,11.47
2018-12-30T21:01:21.649Z,10.90
2018-12-30T21:04:04.057Z,9.77
2018-12-30T21:06:46.721Z,9.23
2018-12-30T21:09:29.463Z,10.17
2018-12-30T21:12:12.449Z,12.57
2018-12-30T21:14:54.881Z,10.13
2018-12-30T21:17:37.972Z,10.03
2018-12-30T21:23:03.356Z,12.03
2018-12-30T21:25:46.052Z,11.40
2018-12-30T21:28:28.477Z,11.47
2018-12-30T21:31:11.467Z,10.80
2018-12-30T21:33:54.542Z,10.07
2018-12-30T21:36:37.551Z,11.10
2018-12-30T21:39:20.265Z,10.53
2018-12-30T21:42:03.464Z,11.80
2018-12-30T21:44:46.529Z,11.57
2018-12-30T21:47:29.782Z,11.00
2018-12-30T21:50:13.143Z,12.20
2018-12-30T21:52:44.240Z,13.13
2018-12-30T21:55:34.249Z,12.17
2018-12-30T21:58:24.360Z,10.63
2018-12-30T22:01:07.483Z,12.83
2018-12-30T22:03:50.437Z,13.87
2018-12-30T22:06:35.213Z,11.30
2018-12-30T22:09:18.501Z,11.73
2018-12-30T22:12:01.924Z,12.67
2018-12-30T22:14:44.619Z,11.83
2018-12-30T22:17:28.030Z,11.90
2018-12-30T22:20:14.071Z,21.37
2018-12-30T22:22:44.748Z,12.23
2018-12-30T22:25:34.769Z,12.07
2018-12-30T22:28:36.585Z,10.17
2018-12-30T22:31:19.282Z,11.27
2018-12-30T22:34:02.906Z,11.07
2018-12-30T22:36:46.914Z,10.90
2018-12-30T22:40:24.408Z,10.80
2018-12-30T22:43:07.054Z,10.30
2018-12-30T22:45:49.756Z,10.83
2018-12-30T22:48:33.399Z,10.73
2018-12-30T22:51:16.803Z,10.60
2018-12-30T22:53:47.387Z,11.03
2018-12-30T22:56:37.365Z,11.33
2018-12-30T22:59:20.966Z,10.70
2018-12-30T23:02:04.113Z,10.60
2018-12-30T23:04:46.840Z,11.87
2018-12-30T23:07:30.108Z,10.80
2018-12-30T23:10:13.323Z,10.57
2018-12-30T23:12:56.681Z,11.30
2018-12-30T23:15:39.983Z,11.77
2018-12-30T23:18:22.423Z,13.00
2018-12-30T23:21:06.693Z,11.83
2018-12-30T23:23:49.908Z,11.50
2018-12-30T23:26:32.366Z,12.20
2018-12-30T23:29:15.456Z,11.47
2018-12-30T23:31:57.753Z,12.10
2018-12-30T23:34:40.701Z,11.40
2018-12-30T23:37:24.409Z,11.20
2018-12-30T23:40:08.446Z,11.53
2018-12-30T23:42:51.565Z,11.63
2018-12-30T23:45:36.989Z,12.67
